createdAt,value
2022-09-28T00:01:58.850Z,8.98
2022-09-28T00:04:25.559Z,8.97
2022-09-28T00:06:52.116Z,8.93
2022-09-28T00:09:18.660Z,8.95
2022-09-28T00:11:46.166Z,8.93
2022-09-28T00:14:12.978Z,8.85
2022-09-28T00:16:42.190Z,8.75
2022-09-28T00:19:09.568Z,8.74
2022-09-28T00:21:38.225Z,8.75
2022-09-28T00:24:15.876Z,8.68
2022-09-28T00:26:47.031Z,8.62
2022-09-28T00:29:23.214Z,8.66
2022-09-28T00:31:52.735Z,8.45
2022-09-28T00:34:19.634Z,8.47
2022-09-28T00:36:47.304Z,8.26
2022-09-28T00:39:15.721Z,8.32
2022-09-28T00:41:42.772Z,8.40
2022-09-28T00:44:24.515Z,8.24
2022-09-28T00:46:53.236Z,8.37
2022-09-28T00:49:25.831Z,8.40
2022-09-28T00:51:52.393Z,8.43
2022-09-28T00:54:19.057Z,8.34
2022-09-28T00:56:47.993Z,8.36
2022-09-28T00:59:15.069Z,8.35
2022-09-28T01:01:42.880Z,8.22
2022-09-28T01:04:09.509Z,8.29
2022-09-28T01:06:38.376Z,8.29
2022-09-28T01:09:08.709Z,8.27
2022-09-28T01:11:39.861Z,8.25
2022-09-28T01:14:11.903Z,8.21
2022-09-28T01:17:09.001Z,8.20
2022-09-28T01:19:56.909Z,8.21
2022-09-28T01:22:26.342Z,8.16
2022-09-28T01:25:13.445Z,8.13
2022-09-28T01:27:44.838Z,8.15
2022-09-28T01:30:15.812Z,8.13
2022-09-28T01:33:08.689Z,8.11
2022-09-28T01:35:43.277Z,8.10
2022-09-28T01:38:15.348Z,8.09
2022-09-28T01:40:43.765Z,8.06
2022-09-28T01:43:19.628Z,8.00
2022-09-28T01:45:54.348Z,8.01
2022-09-28T01:48:30.007Z,7.98
2022-09-28T01:51:00.758Z,7.97
2022-09-28T01:53:36.946Z,7.97
2022-09-28T01:56:09.602Z,7.94
2022-09-28T01:59:08.415Z,7.92
2022-09-28T02:01:47.790Z,7.92
2022-09-28T02:04:29.431Z,7.84
2022-09-28T02:07:05.004Z,7.87
2022-09-28T02:09:37.421Z,7.88
2022-09-28T02:12:14.093Z,7.75
2022-09-28T02:14:43.857Z,7.72
2022-09-28T02:17:10.455Z,7.77
2022-09-28T02:19:37.949Z,7.72
2022-09-28T02:22:31.763Z,7.74
2022-09-28T02:25:35.321Z,7.68
2022-09-28T02:28:04.717Z,7.66
2022-09-28T02:30:32.481Z,7.68
2022-09-28T02:33:24.634Z,7.67
2022-09-28T02:35:51.618Z,7.62
2022-09-28T02:38:18.273Z,7.57
2022-09-28T02:40:54.128Z,7.48
2022-09-28T02:43:26.951Z,7.48
2022-09-28T02:46:15.098Z,7.51
2022-09-28T02:49:04.922Z,7.40
2022-09-28T02:52:05.268Z,7.43
2022-09-28T02:54:49.864Z,7.39
2022-09-28T02:57:27.797Z,7.46
2022-09-28T03:00:18.793Z,7.41
2022-09-28T03:03:10.333Z,7.41
2022-09-28T03:05:46.074Z,7.50
2022-09-28T03:08:25.690Z,7.48
2022-09-28T03:11:14.064Z,7.50
2022-09-28T03:13:41.035Z,7.42
2022-09-28T03:16:13.015Z,7.34
2022-09-28T03:18:39.924Z,7.38
2022-09-28T03:21:07.046Z,7.45
2022-09-28T03:23:33.957Z,7.44
2022-09-28T03:26:00.445Z,7.42
2022-09-28T03:28:27.119Z,7.42
2022-09-28T03:30:54.130Z,7.40
2022-09-28T03:33:20.750Z,7.39
2022-09-28T03:35:50.873Z,7.39
2022-09-28T03:38:18.598Z,7.38
2022-09-28T03:40:54.185Z,7.34
2022-09-28T03:43:20.992Z,7.31
2022-09-28T03:45:59.013Z,7.28
2022-09-28T03:48:32.705Z,7.27
2022-09-28T03:51:07.062Z,7.25
2022-09-28T03:53:33.783Z,7.24
2022-09-28T03:56:20.526Z,7.19
2022-09-28T03:58:47.026Z,7.14
2022-09-28T04:01:17.603Z,7.11
2022-09-28T04:03:44.948Z,7.06
2022-09-28T04:06:11.875Z,7.02
2022-09-28T04:08:38.542Z,6.98
2022-09-28T04:11:05.570Z,6.99
2022-09-28T04:13:32.121Z,6.97
2022-09-28T04:16:07.528Z,6.93
2022-09-28T04:18:35.222Z,6.91
2022-09-28T04:21:07.187Z,6.90
2022-09-28T04:23:35.516Z,6.86
2022-09-28T04:26:03.663Z,6.87
2022-09-28T04:28:48.734Z,6.85
2022-09-28T04:31:18.599Z,6.80
2022-09-28T04:33:45.344Z,6.76
2022-09-28T04:36:11.867Z,6.76
2022-09-28T04:38:52.234Z,6.73
2022-09-28T04:41:20.171Z,6.68
2022-09-28T04:43:47.661Z,6.68
2022-09-28T04:46:14.838Z,6.61
2022-09-28T04:48:41.627Z,6.61
2022-09-28T04:51:08.216Z,6.59
2022-09-28T04:53:35.224Z,6.57
2022-09-28T04:56:16.225Z,6.53
2022-09-28T04:58:43.034Z,6.53
2022-09-28T05:01:13.673Z,6.49
2022-09-28T05:03:40.231Z,6.42
2022-09-28T05:06:07.091Z,6.39
2022-09-28T05:08:35.334Z,6.38
2022-09-28T05:11:06.915Z,6.26
2022-09-28T05:13:43.946Z,6.24
2022-09-28T05:16:11.713Z,6.32
2022-09-28T05:18:38.426Z,6.30
2022-09-28T05:21:11.215Z,6.32
2022-09-28T05:23:37.857Z,6.31
2022-09-28T05:26:04.410Z,6.31
2022-09-28T05:28:33.032Z,6.26
2022-09-28T05:31:01.599Z,6.17
2022-09-28T05:33:29.801Z,6.09
2022-09-28T05:36:00.878Z,6.11
2022-09-28T05:38:28.711Z,6.20
2022-09-28T05:40:55.529Z,6.19
2022-09-28T05:43:22.379Z,6.22
2022-09-28T05:45:53.014Z,6.16
2022-09-28T05:48:22.262Z,6.16
2022-09-28T05:50:52.628Z,6.17
2022-09-28T05:53:20.286Z,6.10
2022-09-28T05:55:47.183Z,6.02
2022-09-28T05:58:13.952Z,6.02
2022-09-28T06:00:40.430Z,5.90
2022-09-28T06:03:10.905Z,5.89
2022-09-28T06:05:39.366Z,5.93
2022-09-28T06:08:08.431Z,6.05
2022-09-28T06:10:35.204Z,6.05
2022-09-28T06:13:02.026Z,6.00
2022-09-28T06:15:31.486Z,6.03
2022-09-28T06:18:04.548Z,6.02
2022-09-28T06:20:35.567Z,5.98
2022-09-28T06:23:02.314Z,5.93
2022-09-28T06:25:29.256Z,6.02
2022-09-28T06:28:02.349Z,6.03
2022-09-28T06:30:32.709Z,5.99
2022-09-28T06:33:01.246Z,5.94
2022-09-28T06:35:33.112Z,5.92
2022-09-28T06:38:00.351Z,5.88
2022-09-28T06:40:27.635Z,5.98
2022-09-28T06:42:58.085Z,5.89
2022-09-28T06:45:26.432Z,5.84
2022-09-28T06:47:54.870Z,5.91
2022-09-28T06:50:21.533Z,5.84
2022-09-28T06:52:51.884Z,5.94
2022-09-28T06:55:19.105Z,5.79
2022-09-28T06:57:46.025Z,5.88
2022-09-28T07:00:13.434Z,5.86
2022-09-28T07:02:39.994Z,5.96
2022-09-28T07:05:08.263Z,5.95
2022-09-28T07:07:34.813Z,6.26
2022-09-28T07:10:01.292Z,6.31
2022-09-28T07:12:27.816Z,6.26
2022-09-28T07:14:57.333Z,6.44
2022-09-28T07:17:24.323Z,6.64
2022-09-28T07:19:53.705Z,6.73
2022-09-28T07:22:29.861Z,6.90
2022-09-28T07:25:01.476Z,7.04
2022-09-28T07:27:29.125Z,7.01
2022-09-28T07:29:55.683Z,7.18
2022-09-28T07:32:22.797Z,7.16
2022-09-28T07:34:50.207Z,7.38
2022-09-28T07:37:18.909Z,7.45
2022-09-28T07:40:09.551Z,7.49
2022-09-28T07:42:36.337Z,7.61
2022-09-28T07:45:04.086Z,7.76
2022-09-28T07:47:34.818Z,7.66
2022-09-28T07:50:03.073Z,7.96
2022-09-28T07:52:29.841Z,7.68
2022-09-28T07:54:56.385Z,7.85
2022-09-28T07:57:23.725Z,8.07
2022-09-28T07:59:53.623Z,7.93
2022-09-28T08:02:21.137Z,8.31
2022-09-28T08:04:48.911Z,8.36
2022-09-28T08:07:20.477Z,8.12
2022-09-28T08:09:50.148Z,8.56
2022-09-28T08:12:18.434Z,8.30
2022-09-28T08:14:45.753Z,8.70
2022-09-28T08:17:12.379Z,8.46
2022-09-28T08:19:57.598Z,8.69
2022-09-28T08:22:24.130Z,8.70
2022-09-28T08:24:52.267Z,9.00
2022-09-28T08:27:18.926Z,9.09
2022-09-28T08:29:46.951Z,8.93
2022-09-28T08:32:13.667Z,9.13
2022-09-28T08:34:41.790Z,9.12
2022-09-28T08:37:09.311Z,9.29
2022-09-28T08:39:36.553Z,9.13
2022-09-28T08:42:09.234Z,9.34
2022-09-28T08:47:36.142Z,10.57
2022-09-28T08:50:09.110Z,11.16
2022-09-28T08:52:40.192Z,11.58
2022-09-28T08:55:26.122Z,11.82
2022-09-28T08:58:07.414Z,12.15
2022-09-28T09:00:41.295Z,13.23
2022-09-28T09:03:13.472Z,13.19
2022-09-28T09:06:09.438Z,13.72
2022-09-28T09:08:56.168Z,13.93
2022-09-28T09:11:48.890Z,14.17
2022-09-28T09:14:35.213Z,14.03
2022-09-28T09:17:15.934Z,14.93
2022-09-28T09:19:45.733Z,14.42
2022-09-28T09:22:50.257Z,14.30
2022-09-28T09:25:29.536Z,14.66
2022-09-28T09:28:34.180Z,14.75
2022-09-28T09:31:18.569Z,15.04
2022-09-28T09:34:01.429Z,15.03
2022-09-28T09:36:53.577Z,14.91
2022-09-28T09:39:55.810Z,15.16
2022-09-28T09:42:50.019Z,15.27
2022-09-28T09:45:43.980Z,14.96
2022-09-28T09:48:27.143Z,15.01
2022-09-28T09:51:23.759Z,14.94
2022-09-28T09:53:55.622Z,14.97
2022-09-28T09:56:31.187Z,15.19
2022-09-28T09:59:08.439Z,15.40
2022-09-28T10:01:40.486Z,15.24
2022-09-28T10:04:21.189Z,15.19
2022-09-28T10:06:48.887Z,15.42
2022-09-28T10:09:28.176Z,15.69
2022-09-28T10:11:54.863Z,15.87
2022-09-28T10:14:24.166Z,15.65
2022-09-28T10:16:53.288Z,15.58
2022-09-28T10:19:25.825Z,15.52
2022-09-28T10:21:53.543Z,15.50
2022-09-28T10:24:30.340Z,15.50
2022-09-28T10:27:03.569Z,15.77
2022-09-28T10:29:38.953Z,16.01
2022-09-28T10:32:18.667Z,16.25
2022-09-28T10:34:50.128Z,15.85
2022-09-28T10:37:18.370Z,16.04
2022-09-28T10:39:55.742Z,16.04
2022-09-28T10:42:33.899Z,16.14
2022-09-28T10:45:20.092Z,16.01
2022-09-28T10:47:47.133Z,15.94
2022-09-28T10:50:35.031Z,15.80
2022-09-28T10:53:21.125Z,15.84
2022-09-28T10:56:01.207Z,15.83
2022-09-28T10:58:40.585Z,15.93
2022-09-28T11:01:11.580Z,15.86
2022-09-28T11:03:58.500Z,15.81
2022-09-28T11:06:31.430Z,16.25
2022-09-28T11:09:01.219Z,16.20
2022-09-28T11:11:29.664Z,16.32
2022-09-28T11:14:03.701Z,16.43
2022-09-28T11:16:33.777Z,16.27
2022-09-28T11:19:25.043Z,16.30
2022-09-28T11:21:51.575Z,16.41
2022-09-28T11:24:24.463Z,16.47
2022-09-28T11:26:56.411Z,16.42
2022-09-28T11:29:36.997Z,16.48
2022-09-28T11:32:06.748Z,16.52
2022-09-28T11:34:59.635Z,16.44
2022-09-28T11:37:42.348Z,16.53
2022-09-28T11:40:30.800Z,16.77
2022-09-28T11:43:07.346Z,16.90
2022-09-28T11:45:33.938Z,16.99
2022-09-28T11:48:06.060Z,16.70
2022-09-28T11:50:46.998Z,16.89
2022-09-28T11:53:20.685Z,16.63
2022-09-28T11:55:50.124Z,16.81
2022-09-28T11:58:32.107Z,16.62
2022-09-28T12:01:36.096Z,17.03
2022-09-28T12:04:09.464Z,17.56
2022-09-28T12:06:46.119Z,17.63
2022-09-28T12:09:28.811Z,16.88
2022-09-28T12:12:01.683Z,17.06
2022-09-28T12:14:35.638Z,16.88
2022-09-28T12:17:25.826Z,17.35
2022-09-28T12:20:03.957Z,17.11
2022-09-28T12:22:37.015Z,16.73
2022-09-28T12:25:10.337Z,16.63
2022-09-28T12:27:59.165Z,16.62
2022-09-28T12:30:30.706Z,17.27
2022-09-28T12:33:03.775Z,17.37
2022-09-28T12:35:59.190Z,17.12
2022-09-28T12:39:14.859Z,17.47
2022-09-28T12:41:44.930Z,16.74
2022-09-28T12:44:37.811Z,16.94
2022-09-28T12:47:37.240Z,16.34
2022-09-28T12:53:39.913Z,16.82
2022-09-28T12:56:31.776Z,17.06
2022-09-28T12:59:19.812Z,17.07
2022-09-28T13:02:37.099Z,17.14
2022-09-28T13:05:40.455Z,17.13
2022-09-28T13:08:31.558Z,17.13
2022-09-28T13:11:22.761Z,16.93
2022-09-28T13:14:14.839Z,16.61
2022-09-28T13:16:50.407Z,16.22
2022-09-28T13:19:27.449Z,16.08
2022-09-28T13:22:09.649Z,15.45
2022-09-28T13:24:44.499Z,16.00
2022-09-28T13:27:17.404Z,16.09
2022-09-28T13:29:44.448Z,15.84
2022-09-28T13:32:12.871Z,14.94
2022-09-28T13:34:39.686Z,15.27
2022-09-28T13:37:27.013Z,15.16
2022-09-28T13:39:56.559Z,15.16
2022-09-28T13:42:44.301Z,15.49
2022-09-28T13:45:27.837Z,15.37
2022-09-28T13:48:14.749Z,15.43
2022-09-28T13:51:05.822Z,15.44
2022-09-28T13:53:39.613Z,15.38
2022-09-28T13:56:21.941Z,15.07
2022-09-28T13:58:57.966Z,14.44
2022-09-28T14:01:52.080Z,14.04
2022-09-28T14:04:21.902Z,14.50
2022-09-28T14:07:09.363Z,14.50
2022-09-28T14:09:46.844Z,14.18
2022-09-28T14:12:35.320Z,14.01
2022-09-28T14:15:02.776Z,14.10
2022-09-28T14:17:51.597Z,14.29
2022-09-28T14:20:19.921Z,14.35
2022-09-28T14:22:58.015Z,14.38
2022-09-28T14:25:42.262Z,14.36
2022-09-28T14:28:26.476Z,14.42
2022-09-28T14:30:59.665Z,14.45
2022-09-28T14:33:31.943Z,14.45
2022-09-28T14:36:42.627Z,14.45
2022-09-28T14:39:40.216Z,14.38
2022-09-28T14:42:17.594Z,14.39
2022-09-28T14:45:06.141Z,14.25
2022-09-28T14:47:44.857Z,14.27
2022-09-28T14:50:21.927Z,14.17
2022-09-28T14:52:54.556Z,14.16
2022-09-28T14:55:33.031Z,14.09
2022-09-28T14:57:59.621Z,14.06
2022-09-28T15:00:30.474Z,14.13
2022-09-28T15:03:02.497Z,14.11
2022-09-28T15:05:49.416Z,13.78
2022-09-28T15:08:20.995Z,13.77
2022-09-28T15:10:50.245Z,13.91
2022-09-28T15:13:21.385Z,13.89
2022-09-28T15:15:51.827Z,13.77
2022-09-28T15:18:38.756Z,13.86
2022-09-28T15:21:05.362Z,13.67
2022-09-28T15:23:36.823Z,13.83
2022-09-28T15:26:07.182Z,13.88
2022-09-28T15:28:35.455Z,13.89
2022-09-28T15:31:05.002Z,13.94
2022-09-28T15:33:53.900Z,13.89
2022-09-28T15:36:41.520Z,13.87
2022-09-28T15:39:21.035Z,13.61
2022-09-28T15:42:04.934Z,13.79
2022-09-28T15:44:35.257Z,13.67
2022-09-28T15:47:15.416Z,13.79
2022-09-28T15:49:58.727Z,13.63
2022-09-28T15:52:47.239Z,13.61
2022-09-28T15:55:38.004Z,13.62
2022-09-28T15:58:22.721Z,13.73
2022-09-28T16:00:51.727Z,13.78
2022-09-28T16:03:29.549Z,13.74
2022-09-28T16:06:03.195Z,13.72
2022-09-28T16:09:05.137Z,13.79
2022-09-28T16:12:31.718Z,13.80
2022-09-28T16:15:34.503Z,13.73
2022-09-28T16:19:06.007Z,13.77
2022-09-28T16:21:45.923Z,13.82
2022-09-28T16:24:26.090Z,13.82
2022-09-28T16:27:25.206Z,13.82
2022-09-28T16:30:15.111Z,13.82
2022-09-28T16:33:06.309Z,13.78
2022-09-28T16:35:50.616Z,13.64
2022-09-28T16:38:18.812Z,13.67
2022-09-28T16:40:49.625Z,13.64
2022-09-28T16:43:27.083Z,13.65
2022-09-28T16:45:57.978Z,13.61
2022-09-28T16:48:30.546Z,13.57
2022-09-28T16:50:58.451Z,13.54
2022-09-28T16:53:44.656Z,13.51
2022-09-28T16:56:12.243Z,13.47
2022-09-28T16:58:39.056Z,13.43
2022-09-28T17:01:09.615Z,13.39
2022-09-28T17:03:36.291Z,13.31
2022-09-28T17:06:07.935Z,13.29
2022-09-28T17:08:35.699Z,13.23
2022-09-28T17:11:23.367Z,13.19
2022-09-28T17:13:49.021Z,13.16
2022-09-28T17:16:43.033Z,13.06
2022-09-28T17:19:27.003Z,13.06
2022-09-28T17:21:53.919Z,12.99
2022-09-28T17:24:21.960Z,12.91
2022-09-28T17:26:50.997Z,12.81
2022-09-28T17:29:18.667Z,12.79
2022-09-28T17:31:46.601Z,12.74
2022-09-28T17:34:16.356Z,12.62
2022-09-28T17:36:45.160Z,12.64
2022-09-28T17:39:17.548Z,12.53
2022-09-28T17:41:44.327Z,12.49
2022-09-28T17:44:18.101Z,12.47
2022-09-28T17:46:47.610Z,12.41
2022-09-28T17:49:14.917Z,12.34
2022-09-28T17:51:41.530Z,12.25
2022-09-28T17:54:08.933Z,12.19
2022-09-28T17:56:36.698Z,12.14
2022-09-28T17:59:08.108Z,12.08
2022-09-28T18:01:38.242Z,12.02
2022-09-28T18:04:06.967Z,12.00
2022-09-28T18:06:34.441Z,11.89
2022-09-28T18:09:04.283Z,11.89
2022-09-28T18:11:43.312Z,11.81
2022-09-28T18:14:11.442Z,11.70
2022-09-28T18:16:45.369Z,11.68
2022-09-28T18:19:12.271Z,11.61
2022-09-28T18:21:42.164Z,11.60
2022-09-28T18:24:09.425Z,11.50
2022-09-28T18:26:37.201Z,11.45
2022-09-28T18:29:03.963Z,11.35
2022-09-28T18:31:36.558Z,11.31
2022-09-28T18:34:05.766Z,11.24
2022-09-28T18:36:35.867Z,11.17
2022-09-28T18:39:18.867Z,11.08
2022-09-28T18:41:46.933Z,11.06
2022-09-28T18:44:16.727Z,11.00
2022-09-28T18:46:43.551Z,10.95
2022-09-28T18:49:10.444Z,10.93
2022-09-28T18:51:40.010Z,10.90
2022-09-28T18:54:07.680Z,10.84
2022-09-28T18:56:37.436Z,10.79
2022-09-28T18:59:12.278Z,10.75
2022-09-28T19:01:41.900Z,10.66
2022-09-28T19:04:10.033Z,10.65
2022-09-28T19:06:41.920Z,10.56
2022-09-28T19:09:15.789Z,10.59
2022-09-28T19:11:42.598Z,10.50
2022-09-28T19:14:12.113Z,10.49
2022-09-28T19:16:46.657Z,10.42
2022-09-28T19:19:27.123Z,10.36
2022-09-28T19:22:08.369Z,10.27
2022-09-28T19:24:35.016Z,10.27
2022-09-28T19:27:03.970Z,10.21
2022-09-28T19:29:33.392Z,9.98
2022-09-28T19:32:05.617Z,10.07
2022-09-28T19:34:34.337Z,10.11
2022-09-28T19:37:04.102Z,10.10
2022-09-28T19:39:33.484Z,10.06
2022-09-28T19:42:01.344Z,9.98
2022-09-28T19:44:29.705Z,9.95
2022-09-28T19:47:06.592Z,9.95
2022-09-28T19:49:37.000Z,9.94
2022-09-28T19:52:13.406Z,9.88
2022-09-28T19:54:44.622Z,9.89
2022-09-28T19:57:12.741Z,9.89
2022-09-28T19:59:46.656Z,9.80
2022-09-28T20:02:16.301Z,9.76
2022-09-28T20:04:42.965Z,9.76
2022-09-28T20:07:09.580Z,9.67
2022-09-28T20:09:36.338Z,9.65
2022-09-28T20:12:03.204Z,9.67
2022-09-28T20:14:33.041Z,9.57
2022-09-28T20:17:00.855Z,9.58
2022-09-28T20:19:27.607Z,9.54
2022-09-28T20:21:55.080Z,9.55
2022-09-28T20:24:21.832Z,9.51
2022-09-28T20:26:49.614Z,9.49
2022-09-28T20:29:16.176Z,9.44
2022-09-28T20:31:43.236Z,9.41
2022-09-28T20:34:14.415Z,9.36
2022-09-28T20:36:47.119Z,9.28
2022-09-28T20:39:13.845Z,9.27
2022-09-28T20:41:41.252Z,9.24
2022-09-28T20:44:07.953Z,9.23
2022-09-28T20:46:36.521Z,9.20
2022-09-28T20:49:04.197Z,9.18
2022-09-28T20:51:30.877Z,9.09
2022-09-28T20:53:58.917Z,9.08
2022-09-28T20:56:28.440Z,9.09
2022-09-28T20:58:55.851Z,9.00
2022-09-28T21:01:31.814Z,9.00
2022-09-28T21:04:01.018Z,8.93
2022-09-28T21:06:32.876Z,8.92
2022-09-28T21:08:59.839Z,8.89
2022-09-28T21:11:28.249Z,8.83
2022-09-28T21:13:57.160Z,8.84
2022-09-28T21:16:24.293Z,8.79
2022-09-28T21:18:50.823Z,8.80
2022-09-28T21:21:19.493Z,8.77
2022-09-28T21:23:46.712Z,8.75
2022-09-28T21:26:24.759Z,8.70
2022-09-28T21:28:53.510Z,8.64
2022-09-28T21:31:23.606Z,8.60
2022-09-28T21:33:52.741Z,8.59
2022-09-28T21:36:19.286Z,8.54
2022-09-28T21:38:45.806Z,8.52
2022-09-28T21:41:12.434Z,8.49
2022-09-28T21:43:39.064Z,8.46
2022-09-28T21:46:05.941Z,8.45
2022-09-28T21:48:32.776Z,8.41
2022-09-28T21:51:01.860Z,8.37
2022-09-28T21:53:31.255Z,8.34
2022-09-28T21:55:59.038Z,8.32
2022-09-28T21:58:28.244Z,8.29
2022-09-28T22:01:04.670Z,8.22
2022-09-28T22:03:32.470Z,8.23
2022-09-28T22:05:59.144Z,8.14
2022-09-28T22:08:26.218Z,8.14
2022-09-28T22:11:05.755Z,8.13
2022-09-28T22:13:39.244Z,8.11
2022-09-28T22:16:06.373Z,8.04
2022-09-28T22:18:34.117Z,8.02
2022-09-28T22:21:03.367Z,8.00
2022-09-28T22:23:30.365Z,7.95
2022-09-28T22:26:02.135Z,7.94
2022-09-28T22:28:29.129Z,7.88
2022-09-28T22:30:56.870Z,7.85
2022-09-28T22:33:24.037Z,7.85
2022-09-28T22:35:51.364Z,7.79
2022-09-28T22:38:19.280Z,7.78
2022-09-28T22:40:49.699Z,7.75
2022-09-28T22:43:16.982Z,7.67
2022-09-28T22:45:43.607Z,7.69
2022-09-28T22:48:10.348Z,7.66
2022-09-28T22:50:37.745Z,7.58
2022-09-28T22:53:04.880Z,7.58
2022-09-28T22:55:34.939Z,7.54
2022-09-28T22:58:01.765Z,7.50
2022-09-28T23:00:30.203Z,7.49
2022-09-28T23:02:56.767Z,7.48
2022-09-28T23:05:23.361Z,7.43
2022-09-28T23:07:50.016Z,7.46
2022-09-28T23:10:16.762Z,7.34
2022-09-28T23:12:43.654Z,7.33
2022-09-28T23:15:10.547Z,7.32
2022-09-28T23:17:37.105Z,7.27
2022-09-28T23:20:03.949Z,7.29
2022-09-28T23:22:30.484Z,7.25
2022-09-28T23:24:57.093Z,7.22
2022-09-28T23:27:23.678Z,7.14
2022-09-28T23:29:52.712Z,7.15
2022-09-28T23:32:19.248Z,7.13
2022-09-28T23:34:45.791Z,7.12
2022-09-28T23:37:12.307Z,6.99
2022-09-28T23:39:38.840Z,7.04
2022-09-28T23:42:05.949Z,7.01
2022-09-28T23:44:33.223Z,6.99
2022-09-28T23:46:59.947Z,6.99
2022-09-28T23:49:26.526Z,6.97
2022-09-28T23:51:53.065Z,6.94
2022-09-28T23:54:19.542Z,6.87
2022-09-28T23:56:46.045Z,6.88
2022-09-28T23:59:12.556Z,6.87
